Time;durP1;ratioP1;P1;durP2;ratioP2;P2;SDS_P1;SDS_P2;PMS_P1;PMS_P2;Temp;Humidity;BMP_temperature;BMP_pressure;BME280_temperature;BME280_humidity;BME280_pressure;Samples;Min_cycle;Max_cycle;Signal;HPM_P1;HPM_P2
2023/01/08 00:01:33;;;;;;;52.08;27.52;;;;;;;-2.77;81.78;93908.47;4978564;28;20019;-60
2023/01/08 00:03:59;;;;;;;53.33;27.65;;;;;;;-2.98;82.20;93903.97;4990805;28;20413;-60
2023/01/08 00:06:24;;;;;;;67.28;35.60;;;;;;;-2.82;82.09;93909.81;4983401;28;20481;-60
2023/01/08 00:08:50;;;;;;;45.38;23.50;;;;;;;-2.80;81.68;93906.66;4983209;28;20022;-62
2023/01/08 00:11:16;;;;;;;35.83;16.80;;;;;;;-2.86;80.70;93906.53;4982856;28;20041;-61
2023/01/08 00:13:41;;;;;;;29.35;18.95;;;;;;;-2.88;81.20;93905.47;4981656;28;20026;-61
2023/01/08 00:16:09;;;;;;;37.83;22.85;;;;;;;-3.05;81.79;93904.28;4985910;28;20026;-61
2023/01/08 00:18:38;;;;;;;32.77;17.87;;;;;;;-3.19;82.18;93889.44;4983785;28;20046;-60
2023/01/08 00:21:04;;;;;;;30.35;16.48;;;;;;;-2.75;81.24;93900.66;4978940;28;20461;-61
2023/01/08 00:23:30;;;;;;;40.58;21.60;;;;;;;-2.71;80.27;93907.41;4987089;28;20121;-61
2023/01/08 00:25:55;;;;;;;50.47;25.48;;;;;;;-2.69;78.83;93910.41;4983315;28;20026;-61
2023/01/08 00:28:24;;;;;;;55.40;28.50;;;;;;;-2.69;78.40;93905.00;4985385;28;20735;-61
2023/01/08 00:30:49;;;;;;;52.75;28.08;;;;;;;-2.75;78.89;93900.66;5007919;28;20030;-60
2023/01/08 00:33:15;;;;;;;59.47;31.52;;;;;;;-2.85;79.27;93904.56;4987940;28;20022;-60
2023/01/08 00:35:41;;;;;;;61.13;32.95;;;;;;;-2.87;79.41;93904.25;4986288;28;20023;-60
2023/01/08 00:38:06;;;;;;;50.95;27.33;;;;;;;-3.03;80.47;93910.00;4976769;28;20081;-60
2023/01/08 00:40:33;;;;;;;59.45;28.92;;;;;;;-2.97;80.70;93911.63;4980635;28;20573;-60
2023/01/08 00:42:59;;;;;;;65.60;31.10;;;;;;;-3.32;81.34;93911.16;4983132;28;20037;-59
2023/01/08 00:45:25;;;;;;;43.63;24.45;;;;;;;-3.44;81.86;93913.97;4984611;28;20058;-60
2023/01/08 00:47:50;;;;;;;48.05;25.92;;;;;;;-3.62;82.21;93903.16;4986028;28;20072;-61
2023/01/08 00:50:16;;;;;;;35.63;21.58;;;;;;;-3.74;82.77;93902.09;4984249;28;20046;-61
2023/01/08 00:52:41;;;;;;;38.25;21.23;;;;;;;-3.70;82.82;93910.78;4984327;28;20065;-61
2023/01/08 00:55:07;;;;;;;38.15;20.73;;;;;;;-3.72;82.86;93912.41;4980718;28;20023;-61
2023/01/08 00:57:35;;;;;;;37.40;21.27;;;;;;;-3.66;82.87;93913.34;4995869;28;20503;-59
2023/01/08 01:00:01;;;;;;;44.10;25.25;;;;;;;-3.27;81.76;93923.31;4978905;28;20072;-60
2023/01/08 01:02:26;;;;;;;45.25;27.80;;;;;;;-3.22;81.94;93911.91;4993256;28;20026;-61
2023/01/08 01:04:52;;;;;;;31.63;16.52;;;;;;;-3.29;81.99;93918.34;4985556;28;20028;-60
2023/01/08 01:07:18;;;;;;;25.80;13.80;;;;;;;-3.15;80.42;93915.09;4986798;28;20045;-61
2023/01/08 01:09:43;;;;;;;22.58;13.32;;;;;;;-3.52;79.42;93918.19;4981253;28;20101;-61
2023/01/08 01:12:08;;;;;;;43.72;20.83;;;;;;;-3.45;81.02;93912.50;4978755;28;20553;-60
2023/01/08 01:14:36;;;;;;;34.13;19.20;;;;;;;-3.51;80.45;93901.53;4986358;28;20495;-61
2023/01/08 01:17:02;;;;;;;36.08;21.17;;;;;;;-3.48;80.01;93905.28;4984440;28;20026;-61
2023/01/08 01:19:27;;;;;;;40.08;18.60;;;;;;;-3.24;80.26;93904.28;4986340;28;20737;-61
2023/01/08 01:21:53;;;;;;;43.45;20.67;;;;;;;-3.38;80.30;93909.50;4980073;28;20096;-61
2023/01/08 01:24:20;;;;;;;33.58;18.75;;;;;;;-3.42;81.00;93911.59;4981332;28;20038;-61
2023/01/08 01:26:46;;;;;;;41.40;20.13;;;;;;;-3.32;80.11;93910.41;4980122;28;20034;-61
2023/01/08 01:29:11;;;;;;;40.75;20.23;;;;;;;-3.37;79.75;93902.91;4988750;28;20026;-61
2023/01/08 01:31:37;;;;;;;39.05;20.88;;;;;;;-3.58;79.19;93912.63;4984394;28;20030;-61
2023/01/08 01:34:02;;;;;;;43.35;22.35;;;;;;;-3.56;80.54;93907.53;4988618;28;20450;-61
2023/01/08 01:36:28;;;;;;;46.35;21.77;;;;;;;-3.70;79.57;93896.56;4985254;28;20019;-61
2023/01/08 01:38:55;;;;;;;44.10;23.65;;;;;;;-3.47;79.91;93890.59;4985470;28;20194;-61
2023/01/08 01:41:28;;;;;;;48.15;23.52;;;;;;;-3.76;80.99;93893.69;4985771;28;20022;-61
2023/01/08 01:43:56;;;;;;;51.03;25.27;;;;;;;-3.89;81.69;93893.81;4985911;28;20034;-61
2023/01/08 01:46:39;;;;;;;40.77;22.40;;;;;;;-3.80;82.09;93882.28;4983643;28;20060;-61
2023/01/08 01:49:10;;;;;;;49.60;23.90;;;;;;;-3.95;82.07;93887.50;4978228;28;20022;-61
2023/01/08 01:51:38;;;;;;;42.95;21.02;;;;;;;-3.86;81.98;93882.16;4990180;28;20085;-61
2023/01/08 01:54:07;;;;;;;29.20;15.23;;;;;;;-3.71;80.40;93887.72;4990599;28;20518;-60
2023/01/08 01:56:33;;;;;;;35.00;16.42;;;;;;;-3.63;80.48;93890.88;4985893;28;20575;-60
2023/01/08 01:58:58;;;;;;;25.35;15.10;;;;;;;-3.64;79.94;93886.69;4980137;28;20022;-61
2023/01/08 02:01:24;;;;;;;34.60;19.23;;;;;;;-3.61;80.04;93883.81;4983992;28;20426;-61
2023/01/08 02:03:49;;;;;;;45.60;21.15;;;;;;;-3.65;80.11;93888.63;4982030;28;20497;-61
2023/01/08 02:06:15;;;;;;;42.67;21.42;;;;;;;-3.73;81.06;93883.97;4981896;28;20031;-60
2023/01/08 02:08:50;;;;;;;36.67;20.90;;;;;;;-3.81;81.00;93882.75;4982328;28;20030;-61
2023/01/08 02:11:30;;;;;;;38.58;20.38;;;;;;;-3.74;80.25;93877.81;4986948;28;20026;-60
2023/01/08 02:14:16;;;;;;;45.00;22.67;;;;;;;-3.95;81.65;93878.66;4980402;28;20025;-60
2023/01/08 02:16:48;;;;;;;44.58;23.52;;;;;;;-4.10;81.81;93883.88;4982714;28;20046;-61
2023/01/08 02:19:35;;;;;;;43.67;22.70;;;;;;;-3.91;81.21;93882.72;4986041;28;20113;-60
2023/01/08 02:22:09;;;;;;;41.90;23.60;;;;;;;-3.78;80.72;93881.84;4993091;28;20098;-60
2023/01/08 02:24:55;;;;;;;43.35;23.00;;;;;;;-3.70;81.07;93883.81;4980755;28;20030;-61
2023/01/08 02:27:24;;;;;;;44.70;25.75;;;;;;;-3.90;81.14;93873.41;4980820;28;20528;-61
2023/01/08 02:29:52;;;;;;;82.88;40.55;;;;;;;-4.08;82.04;93870.69;4985220;28;20324;-61
2023/01/08 02:32:17;;;;;;;60.33;31.92;;;;;;;-4.22;82.00;93865.84;4994032;28;20065;-61
2023/01/08 02:34:43;;;;;;;34.65;18.73;;;;;;;-4.00;81.27;93866.50;4983857;28;20495;-61
2023/01/08 02:37:09;;;;;;;38.63;21.27;;;;;;;-3.95;80.08;93865.19;4986997;28;20587;-60
2023/01/08 02:39:46;;;;;;;31.45;16.80;;;;;;;-4.30;81.26;93863.84;4985559;28;20332;-60
2023/01/08 02:42:32;;;;;;;42.78;19.50;;;;;;;-4.21;81.32;93858.50;4995326;28;20088;-60
2023/01/08 02:45:06;;;;;;;63.65;31.95;;;;;;;-3.96;80.17;93859.03;4984643;28;20081;-60
2023/01/08 02:48:03;;;;;;;63.50;26.90;;;;;;;-4.16;81.06;93842.47;4986743;28;20045;-60
2023/01/08 02:50:38;;;;;;;28.85;15.70;;;;;;;-4.00;79.38;93849.56;4975455;28;20038;-61
2023/01/08 02:53:43;;;;;;;36.88;19.05;;;;;;;-4.03;80.35;93843.13;4989426;28;20050;-60
2023/01/08 02:56:17;;;;;;;33.03;18.88;;;;;;;-3.84;79.49;93843.94;4986284;28;20103;-61
2023/01/08 02:58:43;;;;;;;28.00;16.85;;;;;;;-3.91;78.86;93841.50;4972733;28;20065;-58
2023/01/08 03:01:11;;;;;;;24.45;14.02;;;;;;;-4.33;80.06;93841.22;4976203;28;20887;-61
2023/01/08 03:03:39;;;;;;;29.42;16.75;;;;;;;-4.53;81.04;93840.88;5004952;28;20065;-61
2023/01/08 03:06:13;;;;;;;34.80;18.53;;;;;;;-4.79;82.16;93842.25;4999621;28;20097;-61
2023/01/08 03:08:41;;;;;;;33.72;17.60;;;;;;;-4.73;81.94;93811.59;4999933;28;20085;-60
2023/01/08 03:11:09;;;;;;;30.92;18.58;;;;;;;-4.25;80.39;93844.41;4987084;28;20423;-61
2023/01/08 03:13:41;;;;;;;33.95;20.15;;;;;;;-4.09;80.03;93846.84;5000368;28;20042;-62
2023/01/08 03:16:14;;;;;;;46.78;22.80;;;;;;;-4.10;79.78;93842.66;4985542;28;20049;-60
2023/01/08 03:18:45;;;;;;;44.78;21.63;;;;;;;-4.60;80.17;93819.56;4978960;28;20030;-60
2023/01/08 03:21:12;;;;;;;25.30;14.32;;;;;;;-4.35;80.15;93853.66;4984768;28;20049;-61
2023/01/08 03:23:39;;;;;;;31.10;16.77;;;;;;;-4.11;79.64;93855.38;4975432;28;20031;-61
2023/01/08 03:26:05;;;;;;;34.33;15.93;;;;;;;-4.39;79.42;93828.78;4984197;28;20030;-60
2023/01/08 03:28:37;;;;;;;28.60;14.88;;;;;;;-4.18;78.83;93855.66;4985036;28;20507;-61
2023/01/08 03:31:02;;;;;;;27.27;14.82;;;;;;;-4.53;78.89;93840.13;4982347;28;20018;-60
2023/01/08 03:33:29;;;;;;;13.77;9.27;;;;;;;-4.46;80.07;93851.34;4986145;28;20023;-60
2023/01/08 03:35:56;;;;;;;17.90;10.18;;;;;;;-4.25;80.08;93853.25;4983763;28;20118;-60
2023/01/08 03:38:25;;;;;;;22.45;11.45;;;;;;;-4.09;79.02;93858.38;4984374;28;20030;-60
2023/01/08 03:40:56;;;;;;;23.58;12.48;;;;;;;-4.05;79.11;93850.19;4982439;28;20023;-60
2023/01/08 03:43:21;;;;;;;24.67;13.82;;;;;;;-4.15;78.97;93854.78;4993506;28;20030;-61
2023/01/08 03:45:55;;;;;;;34.08;16.33;;;;;;;-4.34;79.90;93855.91;4981917;28;20076;-61
2023/01/08 03:48:21;;;;;;;31.83;16.50;;;;;;;-4.31;80.45;93857.72;4987203;28;20034;-60
2023/01/08 03:50:47;;;;;;;33.20;15.15;;;;;;;-4.53;81.22;93857.03;4977442;28;20038;-60
2023/01/08 03:53:12;;;;;;;26.98;14.20;;;;;;;-4.75;81.12;93853.63;4981545;28;20096;-61
2023/01/08 03:55:38;;;;;;;24.58;15.20;;;;;;;-4.97;81.77;93845.56;4983378;28;20491;-60
2023/01/08 03:58:03;;;;;;;20.38;12.52;;;;;;;-5.00;81.92;93857.22;4982962;28;20691;-59
2023/01/08 04:00:29;;;;;;;41.03;11.95;;;;;;;-5.22;81.88;93855.72;4974438;28;20019;-60
2023/01/08 04:02:54;;;;;;;42.88;22.83;;;;;;;-5.18;82.92;93850.97;4980158;28;20031;-60
2023/01/08 04:05:19;;;;;;;28.88;16.42;;;;;;;-5.02;83.17;93843.44;4985758;28;20033;-58
2023/01/08 04:07:45;;;;;;;40.55;19.75;;;;;;;-4.86;83.38;93848.63;4982219;28;20528;-60
2023/01/08 04:10:10;;;;;;;69.03;24.73;;;;;;;-4.81;83.88;93845.34;4979958;28;20057;-61
2023/01/08 04:12:36;;;;;;;101.93;28.05;;;;;;;-4.62;84.32;93854.28;4982834;28;20029;-61
2023/01/08 04:15:01;;;;;;;93.93;26.55;;;;;;;-4.73;85.03;93848.53;4984806;28;20029;-61
2023/01/08 04:17:27;;;;;;;110.90;32.83;;;;;;;-4.80;86.26;93848.81;4983267;28;20034;-61
2023/01/08 04:19:52;;;;;;;154.82;33.83;;;;;;;-4.67;86.71;93852.16;4985094;28;20025;-60
2023/01/08 04:22:18;;;;;;;108.88;31.90;;;;;;;-4.67;86.50;93850.22;4983031;28;20018;-61
2023/01/08 04:24:43;;;;;;;90.95;27.10;;;;;;;-4.90;88.73;93845.31;4983512;28;20022;-60
2023/01/08 04:27:09;;;;;;;74.60;23.42;;;;;;;-4.78;88.93;93846.41;4983904;28;20064;-61
2023/01/08 04:29:34;;;;;;;58.95;22.05;;;;;;;-4.65;88.50;93847.09;4989107;28;20074;-60
2023/01/08 04:32:00;;;;;;;187.10;38.38;;;;;;;-4.53;88.06;93846.25;4986792;28;20084;-61
2023/01/08 04:34:25;;;;;;;156.57;30.15;;;;;;;-4.51;87.32;93848.50;4984814;28;20081;-61
2023/01/08 04:36:51;;;;;;;100.70;33.25;;;;;;;-4.58;86.86;93846.06;4985180;28;20022;-61
2023/01/08 04:39:16;;;;;;;113.55;37.47;;;;;;;-4.82;88.71;93848.50;4985638;28;20022;-61
2023/01/08 04:41:42;;;;;;;114.60;34.20;;;;;;;-4.73;89.28;93849.31;4986279;28;20045;-60
2023/01/08 04:44:08;;;;;;;113.05;29.58;;;;;;;-4.52;87.97;93846.97;4985747;28;20069;-61
2023/01/08 04:46:33;;;;;;;95.72;32.50;;;;;;;-4.67;87.51;93847.53;4983039;28;20109;-61
2023/01/08 04:48:59;;;;;;;145.88;32.50;;;;;;;-4.45;88.45;93844.03;4986978;28;20030;-61
2023/01/08 04:51:25;;;;;;;160.40;36.00;;;;;;;-4.37;88.44;93847.94;4986075;28;20104;-60
2023/01/08 04:53:50;;;;;;;97.65;37.80;;;;;;;-4.46;87.51;93850.63;4986426;28;20029;-61
2023/01/08 04:56:16;;;;;;;124.82;33.85;;;;;;;-4.72;87.09;93855.44;4980062;28;20418;-60
2023/01/08 04:58:41;;;;;;;112.40;35.05;;;;;;;-4.60;87.58;93857.28;4984698;28;20027;-61
2023/01/08 05:01:18;;;;;;;74.63;29.83;;;;;;;-4.40;86.38;93848.84;4986008;28;20037;-61
2023/01/08 05:03:43;;;;;;;48.08;24.27;;;;;;;-4.72;85.56;93840.00;4986213;28;20033;-61
2023/01/08 05:06:09;;;;;;;53.17;25.58;;;;;;;-4.89;85.13;93854.13;4990036;28;20031;-61
2023/01/08 05:08:34;;;;;;;51.25;23.33;;;;;;;-5.03;85.65;93850.03;4988517;28;20022;-60
2023/01/08 05:11:01;;;;;;;50.13;24.40;;;;;;;-5.00;85.89;93848.41;4989781;28;20022;-60
2023/01/08 05:13:27;;;;;;;45.10;17.10;;;;;;;-4.82;84.58;93854.63;4987406;28;20080;-60
2023/01/08 05:15:53;;;;;;;41.72;18.20;;;;;;;-5.27;84.72;93850.91;4994112;28;20022;-60
2023/01/08 05:18:18;;;;;;;42.45;20.05;;;;;;;-5.33;85.23;93856.09;4989307;28;20259;-60
2023/01/08 05:20:44;;;;;;;37.92;17.67;;;;;;;-5.10;85.62;93852.22;4991409;28;20061;-60
2023/01/08 05:23:09;;;;;;;57.92;23.75;;;;;;;-4.94;84.48;93854.72;4985480;28;20022;-60
2023/01/08 05:25:35;;;;;;;57.28;23.63;;;;;;;-5.01;84.06;93834.19;4987459;28;20491;-60
2023/01/08 05:28:01;;;;;;;49.58;23.60;;;;;;;-5.07;84.48;93841.34;4981679;28;20026;-60
2023/01/08 05:30:26;;;;;;;54.40;25.23;;;;;;;-5.06;85.21;93869.75;4987024;28;20563;-60
2023/01/08 05:32:52;;;;;;;57.83;25.02;;;;;;;-5.01;85.37;93857.66;4990398;28;20077;-60
2023/01/08 05:35:17;;;;;;;63.85;24.80;;;;;;;-4.76;84.39;93860.19;4981419;28;20026;-60
2023/01/08 05:37:43;;;;;;;55.45;26.05;;;;;;;-4.96;84.65;93857.09;4976261;28;20023;-61
2023/01/08 05:40:09;;;;;;;59.78;28.73;;;;;;;-5.03;85.70;93873.50;4982281;28;20498;-62
2023/01/08 05:42:35;;;;;;;46.17;22.35;;;;;;;-4.94;86.42;93868.19;4981666;28;20037;-61
2023/01/08 05:45:05;;;;;;;37.10;19.40;;;;;;;-4.88;85.41;93871.81;4976247;28;20033;-60
2023/01/08 05:47:32;;;;;;;42.80;21.98;;;;;;;-4.86;84.49;93850.56;4977790;28;20664;-60
2023/01/08 05:49:57;;;;;;;37.60;19.35;;;;;;;-5.12;84.17;93873.44;4985733;28;20570;-61
2023/01/08 05:52:23;;;;;;;37.28;19.92;;;;;;;-5.27;85.39;93869.72;4983478;28;20118;-61
2023/01/08 05:54:49;;;;;;;45.00;21.45;;;;;;;-5.39;85.19;93868.59;4984883;28;20517;-60
2023/01/08 05:57:14;;;;;;;39.08;19.30;;;;;;;-5.40;85.56;93867.09;4987036;28;20818;-61
2023/01/08 05:59:40;;;;;;;64.18;20.33;;;;;;;-5.36;86.23;93875.78;4990414;28;20034;-61
2023/01/08 06:02:06;;;;;;;35.92;17.83;;;;;;;-5.47;85.89;93856.56;4982688;28;20030;-60
2023/01/08 06:04:32;;;;;;;34.05;17.35;;;;;;;-5.43;85.48;93867.97;4987680;28;20022;-61
2023/01/08 06:06:57;;;;;;;38.72;19.63;;;;;;;-5.39;84.65;93866.66;4986944;28;20552;-61
2023/01/08 06:09:23;;;;;;;38.97;18.73;;;;;;;-5.20;84.43;93869.50;4983477;28;20057;-60
2023/01/08 06:11:48;;;;;;;32.55;15.60;;;;;;;-4.91;83.73;93878.81;4986064;28;20022;-61
2023/01/08 06:14:15;;;;;;;34.28;15.48;;;;;;;-4.88;83.17;93871.81;4981784;28;20030;-62
2023/01/08 06:16:42;;;;;;;83.55;36.33;;;;;;;-4.74;81.72;93879.34;4993088;28;20041;-61
2023/01/08 06:19:09;;;;;;;94.95;47.03;;;;;;;-4.87;81.17;93876.72;4982278;28;20041;-61
2023/01/08 06:21:35;;;;;;;76.88;35.05;;;;;;;-4.66;82.20;93881.34;4989272;28;20664;-62
2023/01/08 06:24:00;;;;;;;122.82;57.03;;;;;;;-4.72;83.54;93883.09;4987147;28;20022;-62
2023/01/08 06:26:26;;;;;;;176.07;72.35;;;;;;;-4.77;83.75;93880.25;4987098;28;20045;-62
2023/01/08 06:28:51;;;;;;;84.78;38.90;;;;;;;-5.03;83.61;93882.34;4984691;28;20037;-62
2023/01/08 06:31:17;;;;;;;86.95;37.72;;;;;;;-5.15;84.03;93883.13;4983560;28;20027;-62
2023/01/08 06:33:42;;;;;;;93.85;43.03;;;;;;;-5.22;85.31;93880.69;4987501;28;20030;-62
2023/01/08 06:36:08;;;;;;;79.22;37.75;;;;;;;-5.22;85.45;93880.69;4987404;28;20092;-63
2023/01/08 06:38:34;;;;;;;56.80;31.02;;;;;;;-5.09;85.20;93876.00;4981556;28;20109;-61
2023/01/08 06:41:04;;;;;;;67.90;33.47;;;;;;;-4.90;83.75;93876.88;4984609;28;20082;-61
2023/01/08 06:43:30;;;;;;;64.43;31.98;;;;;;;-4.81;82.80;93888.44;4988243;28;20113;-62
2023/01/08 06:45:57;;;;;;;63.03;33.63;;;;;;;-5.07;82.71;93860.19;4982397;28;20500;-62
2023/01/08 06:48:40;;;;;;;71.47;34.22;;;;;;;-4.52;81.39;93888.16;4983392;28;20033;-62
2023/01/08 06:51:07;;;;;;;74.00;37.17;;;;;;;-4.49;81.38;93873.81;4982275;28;20046;-61
2023/01/08 06:53:32;;;;;;;71.25;33.78;;;;;;;-4.24;80.80;93891.72;4981273;28;20570;-62
2023/01/08 06:55:58;;;;;;;64.25;33.83;;;;;;;-4.06;80.38;93894.50;4989575;28;20105;-62
2023/01/08 06:58:25;;;;;;;72.72;33.90;;;;;;;-3.79;78.99;93891.91;4988607;28;20026;-63
2023/01/08 07:00:50;;;;;;;57.65;31.33;;;;;;;-3.63;78.74;93891.63;4982159;28;20085;-62
2023/01/08 07:03:16;;;;;;;44.38;21.25;;;;;;;-3.40;79.22;93907.25;4986802;28;20030;-62
2023/01/08 07:05:41;;;;;;;41.53;20.45;;;;;;;-3.30;79.67;93902.63;4981789;28;20038;-62
2023/01/08 07:08:14;;;;;;;50.63;24.73;;;;;;;-3.13;79.50;93901.88;4984777;28;20022;-62
2023/01/08 07:10:40;;;;;;;36.05;20.35;;;;;;;-2.39;77.98;93884.38;4983262;28;20042;-62
2023/01/08 07:13:09;;;;;;;30.60;15.18;;;;;;;-0.55;72.28;93893.19;4985988;28;20073;-62
2023/01/08 07:15:38;;;;;;;29.23;16.73;;;;;;;0.92;66.49;93901.81;4985983;28;20501;-62
2023/01/08 07:18:05;;;;;;;28.40;16.92;;;;;;;1.70;62.04;93898.72;4986975;28;20426;-62
2023/01/08 07:20:31;;;;;;;36.70;19.58;;;;;;;2.18;60.18;93907.81;4982731;28;20113;-62
2023/01/08 07:23:04;;;;;;;30.58;18.02;;;;;;;2.75;59.17;93896.06;4984004;28;20498;-62
2023/01/08 07:25:30;;;;;;;28.00;17.73;;;;;;;2.98;57.46;93895.69;4981475;28;20030;-62
2023/01/08 07:27:56;;;;;;;26.13;16.38;;;;;;;1.98;59.85;93904.41;4999521;28;20057;-62
2023/01/08 07:30:21;;;;;;;25.60;17.90;;;;;;;3.16;57.44;93889.06;4980824;28;20041;-62
2023/01/08 07:32:47;;;;;;;34.53;19.75;;;;;;;3.16;56.83;93899.97;4982950;28;20042;-61
2023/01/08 07:35:12;;;;;;;43.90;26.42;;;;;;;1.57;60.99;93903.03;4983014;28;20464;-61
2023/01/08 07:37:39;;;;;;;56.13;34.15;;;;;;;1.24;63.78;93909.59;4984326;28;20034;-61
2023/01/08 07:40:06;;;;;;;73.38;43.05;;;;;;;0.63;65.23;93900.69;4978973;28;20022;-61
2023/01/08 07:42:31;;;;;;;118.90;69.75;;;;;;;0.06;67.76;93891.47;4981409;28;20034;-62
2023/01/08 07:44:57;;;;;;;88.72;55.05;;;;;;;1.39;65.47;93902.13;4980855;28;20675;-61
2023/01/08 07:47:22;;;;;;;52.72;35.13;;;;;;;1.72;63.94;93909.13;4982812;28;20027;-61
2023/01/08 07:49:48;;;;;;;45.00;27.10;;;;;;;1.67;64.90;93904.38;4982958;28;20046;-61
2023/01/08 07:52:13;;;;;;;41.03;27.67;;;;;;;2.13;64.11;93905.03;4985765;28;20033;-62
2023/01/08 07:54:39;;;;;;;47.50;32.60;;;;;;;2.58;63.38;93906.84;4984036;28;20034;-62
2023/01/08 07:57:04;;;;;;;35.10;22.58;;;;;;;3.67;60.89;93901.63;4984273;28;20414;-61
2023/01/08 07:59:30;;;;;;;31.75;18.90;;;;;;;4.36;58.50;93903.44;4984834;28;20033;-62
2023/01/08 08:01:55;;;;;;;26.23;17.30;;;;;;;4.50;58.85;93896.94;4983445;28;20116;-62
2023/01/08 08:04:21;;;;;;;23.95;15.43;;;;;;;5.73;56.21;93895.34;4983097;28;20172;-61
2023/01/08 08:06:46;;;;;;;25.48;14.13;;;;;;;6.99;53.26;93894.13;4982385;28;20030;-62
2023/01/08 08:09:12;;;;;;;20.60;14.15;;;;;;;8.43;50.08;93875.78;4985032;28;20084;-62
2023/01/08 08:11:38;;;;;;;19.77;12.73;;;;;;;9.61;46.83;93896.69;4984054;28;20125;-62
2023/01/08 08:14:03;;;;;;;20.30;11.55;;;;;;;9.58;47.01;93894.25;4983322;28;20045;-62
2023/01/08 08:16:29;;;;;;;17.33;12.27;;;;;;;9.79;45.96;93886.78;4983353;28;20502;-62
2023/01/08 08:18:57;;;;;;;19.35;14.60;;;;;;;10.16;45.73;93889.28;4979502;28;20037;-63
2023/01/08 08:21:23;;;;;;;18.48;14.20;;;;;;;10.89;43.87;93888.34;4980980;28;20080;-63
2023/01/08 08:23:48;;;;;;;17.30;14.25;;;;;;;11.17;44.24;93880.81;4982145;28;20034;-62
2023/01/08 08:26:14;;;;;;;18.40;13.40;;;;;;;13.28;39.31;93888.34;4980151;28;20022;-63
2023/01/08 08:28:39;;;;;;;23.08;16.02;;;;;;;13.85;38.07;93883.06;4981386;28;20038;-62
2023/01/08 08:31:05;;;;;;;24.55;15.93;;;;;;;14.62;36.37;93882.22;4979558;28;20376;-62
2023/01/08 08:33:30;;;;;;;36.53;25.15;;;;;;;14.26;37.61;93888.09;4976906;28;20426;-62
2023/01/08 08:35:56;;;;;;;36.38;25.30;;;;;;;14.36;36.89;93886.97;4978740;28;20060;-63
2023/01/08 08:38:23;;;;;;;22.00;16.30;;;;;;;14.91;36.39;93891.63;4975318;28;20056;-63
2023/01/08 08:40:49;;;;;;;19.33;16.38;;;;;;;14.52;37.59;93887.63;4978358;28;20026;-62
2023/01/08 08:43:14;;;;;;;18.65;12.15;;;;;;;14.85;36.27;93888.34;4977089;28;20035;-62
2023/01/08 08:45:40;;;;;;;14.45;10.85;;;;;;;15.83;35.29;93890.34;4981336;28;20415;-62
2023/01/08 08:48:07;;;;;;;15.73;12.30;;;;;;;14.95;36.23;93880.84;4981609;28;20026;-63
2023/01/08 08:50:33;;;;;;;15.85;11.55;;;;;;;15.38;36.37;93885.16;4984415;28;20133;-63
2023/01/08 08:53:00;;;;;;;17.40;11.50;;;;;;;14.62;38.02;93890.53;4985164;28;20026;-63
2023/01/08 08:55:27;;;;;;;15.90;12.07;;;;;;;15.56;36.57;93884.66;4981787;28;20089;-62
2023/01/08 08:57:52;;;;;;;15.93;11.77;;;;;;;14.34;37.53;93883.25;4983295;28;20023;-62
2023/01/08 09:00:18;;;;;;;13.55;11.05;;;;;;;16.19;35.64;93884.91;4979252;28;20034;-62
2023/01/08 09:02:44;;;;;;;14.30;10.82;;;;;;;14.35;38.49;93879.94;4971798;28;20029;-62
2023/01/08 09:05:10;;;;;;;16.58;11.45;;;;;;;15.88;36.65;93887.28;4980031;28;20038;-62
2023/01/08 09:07:36;;;;;;;14.20;11.90;;;;;;;16.52;35.09;93880.59;4984423;28;20034;-63
2023/01/08 09:10:03;;;;;;;20.45;12.90;;;;;;;15.37;36.86;93881.66;4983860;28;20053;-62
2023/01/08 09:12:28;;;;;;;17.73;11.07;;;;;;;16.09;35.90;93872.94;4972480;28;20019;-63
2023/01/08 09:14:55;;;;;;;16.50;11.95;;;;;;;16.31;35.52;93866.34;4981334;28;20654;-62
2023/01/08 09:17:21;;;;;;;18.77;14.27;;;;;;;17.83;33.28;93857.16;4993097;28;20088;-62
2023/01/08 09:19:47;;;;;;;26.05;17.70;;;;;;;16.91;33.65;93873.19;4998323;28;20514;-62
2023/01/08 09:22:12;;;;;;;61.85;31.25;;;;;;;18.28;33.12;93860.41;4973580;28;20046;-62
2023/01/08 09:24:38;;;;;;;24.05;16.58;;;;;;;17.83;33.14;93864.78;4980693;28;20034;-67
2023/01/08 09:27:03;;;;;;;26.33;18.80;;;;;;;18.13;32.82;93856.56;4980340;28;20062;-67
2023/01/08 09:29:29;;;;;;;38.83;25.25;;;;;;;18.59;32.37;93855.66;4985211;28;20113;-67
2023/01/08 09:31:54;;;;;;;32.53;23.25;;;;;;;18.37;32.68;93856.84;4981004;28;20117;-67
2023/01/08 09:34:20;;;;;;;36.30;23.02;;;;;;;19.93;30.72;93841.81;4980702;28;20039;-66
2023/01/08 09:36:46;;;;;;;49.85;31.60;;;;;;;20.04;29.42;93857.94;4978239;28;20046;-67
2023/01/08 09:39:11;;;;;;;46.58;30.08;;;;;;;18.82;31.18;93827.91;4985083;28;20553;-63
2023/01/08 09:41:41;;;;;;;55.45;33.60;;;;;;;20.30;28.92;93840.06;4982800;28;20395;-62
2023/01/08 09:44:06;;;;;;;57.42;36.60;;;;;;;20.76;29.12;93825.44;4985739;28;20462;-63
2023/01/08 09:46:33;;;;;;;17.20;10.18;;;;;;;20.48;27.86;93828.53;4983654;28;20050;-63
2023/01/08 09:49:03;;;;;;;11.70;7.22;;;;;;;20.20;28.51;93819.78;4988355;28;20026;-63
2023/01/08 09:51:36;;;;;;;2.55;1.92;;;;;;;19.79;27.02;93818.47;4987717;28;20026;-62
2023/01/08 09:54:02;;;;;;;4.35;2.20;;;;;;;19.12;28.53;93818.84;4988629;28;20588;-62
2023/01/08 09:56:28;;;;;;;4.47;2.15;;;;;;;19.45;28.50;93810.56;4997905;28;20045;-63
2023/01/08 09:58:57;;;;;;;3.22;2.22;;;;;;;18.57;29.23;93811.53;5016753;28;20029;-63
2023/01/08 10:01:27;;;;;;;4.20;2.00;;;;;;;18.06;30.21;93809.94;4982777;28;20022;-61
2023/01/08 10:03:59;;;;;;;2.83;1.70;;;;;;;17.25;30.85;93806.06;4987491;28;20035;-61
2023/01/08 10:06:24;;;;;;;2.75;1.60;;;;;;;17.86;29.78;93802.91;4983272;28;20517;-61
2023/01/08 10:08:51;;;;;;;1.90;1.60;;;;;;;18.17;29.12;93806.56;4978498;28;20030;-61
2023/01/08 10:11:16;;;;;;;2.60;1.95;;;;;;;18.12;29.24;93793.66;4982231;28;20039;-61
2023/01/08 10:13:54;;;;;;;2.33;1.60;;;;;;;18.66;28.75;93801.63;4987347;28;20063;-62
2023/01/08 10:16:34;;;;;;;2.83;1.92;;;;;;;18.32;29.04;93791.53;4986273;28;20463;-62
2023/01/08 10:19:01;;;;;;;4.05;1.55;;;;;;;18.72;28.02;93796.47;4984203;28;20026;-62
2023/01/08 10:21:30;;;;;;;1.60;1.48;;;;;;;18.98;28.08;93789.88;4980510;28;20561;-62
2023/01/08 10:23:55;;;;;;;2.40;1.80;;;;;;;19.33;27.88;93785.28;4980569;28;20824;-62
2023/01/08 10:26:38;;;;;;;2.22;1.73;;;;;;;19.32;27.17;93783.06;4983000;28;20555;-61
2023/01/08 10:29:12;;;;;;;3.17;2.22;;;;;;;19.49;26.49;93780.75;4986632;28;20026;-61
2023/01/08 10:31:45;;;;;;;4.75;2.00;;;;;;;18.57;28.46;93777.97;4986261;28;20511;-62
2023/01/08 10:34:11;;;;;;;2.60;2.00;;;;;;;18.35;28.76;93772.84;4982477;28;20045;-62
2023/01/08 10:36:41;;;;;;;3.42;2.42;;;;;;;18.58;28.45;93768.22;4979803;28;20023;-61
2023/01/08 10:39:18;;;;;;;3.92;2.00;;;;;;;17.55;29.51;93762.19;4985585;28;20052;-61
2023/01/08 10:41:44;;;;;;;5.18;2.42;;;;;;;17.62;30.42;93764.84;4982607;28;20033;-61
2023/01/08 10:44:15;;;;;;;2.83;1.67;;;;;;;18.86;28.60;93755.47;4984338;28;20133;-61
2023/01/08 10:46:43;;;;;;;3.28;1.67;;;;;;;19.64;26.73;93746.75;4995844;28;20033;-61
2023/01/08 10:49:38;;;;;;;1.98;1.70;;;;;;;18.53;28.00;93743.41;4981854;28;20096;-62
2023/01/08 10:52:04;;;;;;;22.23;2.80;;;;;;;18.04;28.91;93742.75;4979182;28;20530;-62
2023/01/08 10:54:40;;;;;;;4.75;1.70;;;;;;;18.11;29.38;93739.06;4980402;28;20654;-61
2023/01/08 10:57:21;;;;;;;4.03;2.40;;;;;;;17.84;29.16;93743.38;4981599;28;20491;-61
2023/01/08 10:59:47;;;;;;;7.43;2.10;;;;;;;16.66;31.02;93742.31;4980769;28;20042;-62
2023/01/08 11:02:34;;;;;;;2.60;1.77;;;;;;;17.80;29.67;93731.91;4981629;28;20025;-62
2023/01/08 11:05:00;;;;;;;2.75;1.50;;;;;;;18.24;29.06;93721.09;5000623;28;20045;-63
2023/01/08 11:07:27;;;;;;;2.20;1.50;;;;;;;18.38;29.24;93726.94;4999407;28;20395;-63
2023/01/08 11:09:52;;;;;;;2.47;1.42;;;;;;;18.66;28.09;93720.53;4986795;28;20114;-62
2023/01/08 11:12:27;;;;;;;1.70;1.27;;;;;;;18.48;27.81;93722.81;4981479;28;20039;-62
2023/01/08 11:14:52;;;;;;;2.28;1.75;;;;;;;18.31;27.92;93716.66;4981811;28;20035;-62
2023/01/08 11:17:18;;;;;;;2.88;1.42;;;;;;;17.55;29.49;93720.31;4987756;28;20026;-63
2023/01/08 11:19:43;;;;;;;2.38;1.60;;;;;;;17.54;29.29;93725.19;4986077;28;20032;-62
2023/01/08 11:22:19;;;;;;;2.60;1.38;;;;;;;16.91;30.42;93719.06;4982643;28;20480;-61